sensor_id;sensor_type;location;lat;lon;timestamp;P1;durP1;ratioP1;P2;durP2;ratioP2
45382;SDS011;42455;51.660;5.824;2023-04-15T00:01:19;7.0;;;5.0;;
45382;SDS011;42455;51.660;5.824;2023-04-15T00:06:25;6.0;;;5.0;;
45382;SDS011;42455;51.660;5.824;2023-04-15T00:11:31;7.0;;;5.0;;
45382;SDS011;42455;51.660;5.824;2023-04-15T00:16:38;7.0;;;5.0;;
45382;SDS011;42455;51.660;5.824;2023-04-15T00:21:44;7.0;;;5.0;;
45382;SDS011;42455;51.660;5.824;2023-04-15T00:26:50;6.5;;;5.0;;
45382;SDS011;42455;51.660;5.824;2023-04-15T00:31:56;7.0;;;5.0;;
45382;SDS011;42455;51.660;5.824;2023-04-15T00:37:02;7.0;;;5.0;;
45382;SDS011;42455;51.660;5.824;2023-04-15T00:42:08;7.0;;;6.0;;
45382;SDS011;42455;51.660;5.824;2023-04-15T00:47:15;7.0;;;6.0;;
45382;SDS011;42455;51.660;5.824;2023-04-15T00:52:21;7.0;;;6.0;;
45382;SDS011;42455;51.660;5.824;2023-04-15T00:57:27;7.0;;;6.0;;
45382;SDS011;42455;51.660;5.824;2023-04-15T01:02:34;7.0;;;6.0;;
45382;SDS011;42455;51.660;5.824;2023-04-15T01:07:39;7.0;;;6.0;;
45382;SDS011;42455;51.660;5.824;2023-04-15T01:12:46;7.0;;;6.0;;
45382;SDS011;42455;51.660;5.824;2023-04-15T01:17:52;7.0;;;6.0;;
45382;SDS011;42455;51.660;5.824;2023-04-15T01:22:58;6.0;;;6.0;;
45382;SDS011;42455;51.660;5.824;2023-04-15T01:28:04;8.0;;;7.0;;
45382;SDS011;42455;51.660;5.824;2023-04-15T01:33:10;8.0;;;6.0;;
45382;SDS011;42455;51.660;5.824;2023-04-15T01:38:16;7.0;;;6.0;;
45382;SDS011;42455;51.660;5.824;2023-04-15T01:43:22;7.0;;;6.0;;
45382;SDS011;42455;51.660;5.824;2023-04-15T01:48:27;7.0;;;6.0;;
45382;SDS011;42455;51.660;5.824;2023-04-15T01:53:33;7.0;;;6.0;;
45382;SDS011;42455;51.660;5.824;2023-04-15T01:58:40;7.0;;;6.0;;
45382;SDS011;42455;51.660;5.824;2023-04-15T02:03:46;8.0;;;7.0;;
45382;SDS011;42455;51.660;5.824;2023-04-15T02:08:52;8.0;;;7.0;;
45382;SDS011;42455;51.660;5.824;2023-04-15T02:13:58;8.0;;;7.0;;
45382;SDS011;42455;51.660;5.824;2023-04-15T02:19:04;8.0;;;7.0;;
45382;SDS011;42455;51.660;5.824;2023-04-15T02:24:11;8.0;;;7.0;;
45382;SDS011;42455;51.660;5.824;2023-04-15T02:34:23;8.0;;;7.0;;
45382;SDS011;42455;51.660;5.824;2023-04-15T02:39:29;8.0;;;8.0;;
45382;SDS011;42455;51.660;5.824;2023-04-15T02:44:35;9.5;;;7.0;;
45382;SDS011;42455;51.660;5.824;2023-04-15T02:49:42;8.0;;;8.0;;
45382;SDS011;42455;51.660;5.824;2023-04-15T02:54:48;8.0;;;7.0;;
45382;SDS011;42455;51.660;5.824;2023-04-15T02:59:54;8.0;;;7.0;;
45382;SDS011;42455;51.660;5.824;2023-04-15T03:05:00;9.0;;;8.0;;
45382;SDS011;42455;51.660;5.824;2023-04-15T03:10:07;8.0;;;8.0;;
45382;SDS011;42455;51.660;5.824;2023-04-15T03:15:13;8.0;;;7.5;;
45382;SDS011;42455;51.660;5.824;2023-04-15T03:20:19;9.0;;;8.0;;
45382;SDS011;42455;51.660;5.824;2023-04-15T03:25:25;9.0;;;8.0;;
45382;SDS011;42455;51.660;5.824;2023-04-15T03:30:31;9.0;;;8.0;;
45382;SDS011;42455;51.660;5.824;2023-04-15T03:35:38;9.0;;;8.0;;
45382;SDS011;42455;51.660;5.824;2023-04-15T03:40:44;9.0;;;8.0;;
45382;SDS011;42455;51.660;5.824;2023-04-15T03:45:49;9.0;;;8.0;;
45382;SDS011;42455;51.660;5.824;2023-04-15T03:50:55;9.0;;;8.0;;
45382;SDS011;42455;51.660;5.824;2023-04-15T03:56:01;9.0;;;8.0;;
45382;SDS011;42455;51.660;5.824;2023-04-15T04:01:08;9.0;;;8.0;;
45382;SDS011;42455;51.660;5.824;2023-04-15T04:06:14;9.0;;;8.0;;
45382;SDS011;42455;51.660;5.824;2023-04-15T04:11:20;10.0;;;9.0;;
45382;SDS011;42455;51.660;5.824;2023-04-15T04:16:26;9.0;;;8.5;;
45382;SDS011;42455;51.660;5.824;2023-04-15T04:21:32;9.0;;;8.0;;
45382;SDS011;42455;51.660;5.824;2023-04-15T04:26:39;9.0;;;8.0;;
45382;SDS011;42455;51.660;5.824;2023-04-15T04:31:45;9.5;;;9.0;;
45382;SDS011;42455;51.660;5.824;2023-04-15T04:36:51;10.0;;;9.0;;
45382;SDS011;42455;51.660;5.824;2023-04-15T04:41:57;10.0;;;9.0;;
45382;SDS011;42455;51.660;5.824;2023-04-15T04:47:03;10.0;;;8.0;;
45382;SDS011;42455;51.660;5.824;2023-04-15T04:52:10;10.0;;;9.0;;
45382;SDS011;42455;51.660;5.824;2023-04-15T04:57:16;10.0;;;9.0;;
45382;SDS011;42455;51.660;5.824;2023-04-15T05:02:22;10.0;;;9.0;;
45382;SDS011;42455;51.660;5.824;2023-04-15T05:07:28;10.0;;;9.0;;
45382;SDS011;42455;51.660;5.824;2023-04-15T05:12:34;10.0;;;9.0;;
45382;SDS011;42455;51.660;5.824;2023-04-15T05:17:41;10.0;;;9.0;;
45382;SDS011;42455;51.660;5.824;2023-04-15T05:22:47;10.0;;;9.0;;
45382;SDS011;42455;51.660;5.824;2023-04-15T05:32:58;11.0;;;9.0;;
45382;SDS011;42455;51.660;5.824;2023-04-15T05:38:04;10.0;;;9.0;;
45382;SDS011;42455;51.660;5.824;2023-04-15T05:43:10;10.0;;;9.0;;
45382;SDS011;42455;51.660;5.824;2023-04-15T05:48:15;11.0;;;10.0;;
45382;SDS011;42455;51.660;5.824;2023-04-15T05:53:21;11.0;;;10.0;;
45382;SDS011;42455;51.660;5.824;2023-04-15T05:58:26;11.0;;;10.0;;
45382;SDS011;42455;51.660;5.824;2023-04-15T06:03:33;11.0;;;10.0;;
45382;SDS011;42455;51.660;5.824;2023-04-15T06:08:38;11.0;;;10.0;;
45382;SDS011;42455;51.660;5.824;2023-04-15T06:13:44;12.0;;;10.0;;
45382;SDS011;42455;51.660;5.824;2023-04-15T06:18:50;12.0;;;10.0;;
45382;SDS011;42455;51.660;5.824;2023-04-15T06:23:57;12.0;;;11.0;;
45382;SDS011;42455;51.660;5.824;2023-04-15T06:29:03;12.0;;;11.0;;
45382;SDS011;42455;51.660;5.824;2023-04-15T06:34:09;12.0;;;11.0;;
45382;SDS011;42455;51.660;5.824;2023-04-15T06:39:15;12.0;;;11.0;;
45382;SDS011;42455;51.660;5.824;2023-04-15T06:44:21;13.0;;;11.0;;
45382;SDS011;42455;51.660;5.824;2023-04-15T06:49:28;13.0;;;12.0;;
45382;SDS011;42455;51.660;5.824;2023-04-15T06:54:34;13.0;;;11.0;;
45382;SDS011;42455;51.660;5.824;2023-04-15T06:59:40;12.0;;;11.0;;
45382;SDS011;42455;51.660;5.824;2023-04-15T07:04:46;12.0;;;11.0;;
45382;SDS011;42455;51.660;5.824;2023-04-15T07:09:52;12.0;;;11.0;;
45382;SDS011;42455;51.660;5.824;2023-04-15T07:14:59;11.0;;;10.0;;
45382;SDS011;42455;51.660;5.824;2023-04-15T07:20:05;12.0;;;11.0;;
45382;SDS011;42455;51.660;5.824;2023-04-15T07:25:11;12.0;;;10.5;;
45382;SDS011;42455;51.660;5.824;2023-04-15T07:30:17;12.0;;;11.0;;
45382;SDS011;42455;51.660;5.824;2023-04-15T07:35:23;12.0;;;11.0;;
45382;SDS011;42455;51.660;5.824;2023-04-15T07:40:30;12.0;;;11.0;;
45382;SDS011;42455;51.660;5.824;2023-04-15T07:45:36;11.0;;;10.0;;
45382;SDS011;42455;51.660;5.824;2023-04-15T07:50:42;11.0;;;10.0;;
45382;SDS011;42455;51.660;5.824;2023-04-15T07:55:47;11.0;;;10.0;;
45382;SDS011;42455;51.660;5.824;2023-04-15T08:00:54;11.0;;;10.0;;
45382;SDS011;42455;51.660;5.824;2023-04-15T08:06:00;11.0;;;10.0;;
45382;SDS011;42455;51.660;5.824;2023-04-15T08:11:05;12.0;;;10.0;;
45382;SDS011;42455;51.660;5.824;2023-04-15T08:16:18;11.0;;;10.0;;
45382;SDS011;42455;51.660;5.824;2023-04-15T08:21:18;10.0;;;9.0;;
45382;SDS011;42455;51.660;5.824;2023-04-15T08:26:24;9.0;;;8.0;;
45382;SDS011;42455;51.660;5.824;2023-04-15T08:31:30;9.0;;;8.0;;
45382;SDS011;42455;51.660;5.824;2023-04-15T08:36:36;8.0;;;8.0;;
45382;SDS011;42455;51.660;5.824;2023-04-15T08:41:44;9.0;;;8.0;;
45382;SDS011;42455;51.660;5.824;2023-04-15T08:46:48;8.0;;;7.0;;
45382;SDS011;42455;51.660;5.824;2023-04-15T08:51:55;7.0;;;6.0;;
45382;SDS011;42455;51.660;5.824;2023-04-15T08:57:01;7.0;;;6.0;;
45382;SDS011;42455;51.660;5.824;2023-04-15T09:02:07;6.0;;;6.0;;
45382;SDS011;42455;51.660;5.824;2023-04-15T09:07:13;5.0;;;5.0;;
45382;SDS011;42455;51.660;5.824;2023-04-15T09:12:19;6.0;;;5.0;;
45382;SDS011;42455;51.660;5.824;2023-04-15T09:17:26;6.0;;;5.0;;
45382;SDS011;42455;51.660;5.824;2023-04-15T09:22:32;6.0;;;5.0;;
45382;SDS011;42455;51.660;5.824;2023-04-15T09:27:39;5.0;;;5.0;;
45382;SDS011;42455;51.660;5.824;2023-04-15T09:32:47;6.0;;;5.0;;
45382;SDS011;42455;51.660;5.824;2023-04-15T09:37:51;5.0;;;5.0;;
45382;SDS011;42455;51.660;5.824;2023-04-15T09:42:57;4.0;;;4.0;;
45382;SDS011;42455;51.660;5.824;2023-04-15T09:48:13;4.0;;;3.0;;
45382;SDS011;42455;51.660;5.824;2023-04-15T09:53:10;4.0;;;3.0;;
45382;SDS011;42455;51.660;5.824;2023-04-15T09:58:17;4.0;;;3.0;;
45382;SDS011;42455;51.660;5.824;2023-04-15T10:03:23;4.0;;;3.0;;
45382;SDS011;42455;51.660;5.824;2023-04-15T10:08:29;4.0;;;3.0;;
45382;SDS011;42455;51.660;5.824;2023-04-15T10:13:33;3.0;;;3.0;;
45382;SDS011;42455;51.660;5.824;2023-04-15T10:18:42;3.0;;;3.0;;
45382;SDS011;42455;51.660;5.824;2023-04-15T10:23:46;3.0;;;3.0;;
45382;SDS011;42455;51.660;5.824;2023-04-15T10:28:52;3.0;;;3.0;;
45382;SDS011;42455;51.660;5.824;2023-04-15T10:33:58;3.0;;;3.0;;
45382;SDS011;42455;51.660;5.824;2023-04-15T10:39:41;4.0;;;3.0;;
45382;SDS011;42455;51.660;5.824;2023-04-15T10:44:10;4.0;;;3.0;;
45382;SDS011;42455;51.660;5.824;2023-04-15T10:49:23;4.0;;;3.0;;
45382;SDS011;42455;51.660;5.824;2023-04-15T10:54:30;3.0;;;3.0;;
45382;SDS011;42455;51.660;5.824;2023-04-15T10:59:29;4.0;;;3.0;;
45382;SDS011;42455;51.660;5.824;2023-04-15T11:04:50;3.0;;;3.0;;
45382;SDS011;42455;51.660;5.824;2023-04-15T11:14:48;3.0;;;3.0;;
45382;SDS011;42455;51.660;5.824;2023-04-15T11:19:54;3.5;;;3.0;;
45382;SDS011;42455;51.660;5.824;2023-04-15T11:25:00;3.0;;;3.0;;
45382;SDS011;42455;51.660;5.824;2023-04-15T11:30:16;3.0;;;3.0;;
45382;SDS011;42455;51.660;5.824;2023-04-15T11:35:12;3.0;;;3.0;;
45382;SDS011;42455;51.660;5.824;2023-04-15T11:40:21;3.0;;;3.0;;
45382;SDS011;42455;51.660;5.824;2023-04-15T11:45:25;3.0;;;3.0;;
45382;SDS011;42455;51.660;5.824;2023-04-15T11:50:30;3.0;;;3.0;;
45382;SDS011;42455;51.660;5.824;2023-04-15T11:55:42;3.0;;;3.0;;
45382;SDS011;42455;51.660;5.824;2023-04-15T12:00:44;3.0;;;3.0;;
45382;SDS011;42455;51.660;5.824;2023-04-15T12:06:16;3.0;;;3.0;;
45382;SDS011;42455;51.660;5.824;2023-04-15T12:10:57;3.0;;;2.0;;
45382;SDS011;42455;51.660;5.824;2023-04-15T12:15:59;3.0;;;2.0;;
45382;SDS011;42455;51.660;5.824;2023-04-15T12:21:08;2.0;;;2.0;;
45382;SDS011;42455;51.660;5.824;2023-04-15T12:26:12;2.0;;;2.0;;
45382;SDS011;42455;51.660;5.824;2023-04-15T12:31:18;3.0;;;2.0;;
45382;SDS011;42455;51.660;5.824;2023-04-15T12:36:24;2.0;;;2.0;;
45382;SDS011;42455;51.660;5.824;2023-04-15T12:41:30;2.0;;;2.0;;
45382;SDS011;42455;51.660;5.824;2023-04-15T12:46:36;2.0;;;2.0;;
45382;SDS011;42455;51.660;5.824;2023-04-15T12:51:43;2.0;;;2.0;;
45382;SDS011;42455;51.660;5.824;2023-04-15T12:56:49;2.0;;;1.0;;
45382;SDS011;42455;51.660;5.824;2023-04-15T13:01:55;2.0;;;1.0;;
45382;SDS011;42455;51.660;5.824;2023-04-15T13:07:01;2.0;;;1.0;;
45382;SDS011;42455;51.660;5.824;2023-04-15T13:12:07;2.0;;;1.0;;
45382;SDS011;42455;51.660;5.824;2023-04-15T13:17:14;1.0;;;1.0;;
45382;SDS011;42455;51.660;5.824;2023-04-15T13:22:20;1.0;;;1.0;;
45382;SDS011;42455;51.660;5.824;2023-04-15T13:27:26;2.0;;;1.0;;
45382;SDS011;42455;51.660;5.824;2023-04-15T13:32:32;2.0;;;1.0;;
45382;SDS011;42455;51.660;5.824;2023-04-15T13:37:38;2.0;;;1.0;;
45382;SDS011;42455;51.660;5.824;2023-04-15T13:42:45;2.0;;;2.0;;
45382;SDS011;42455;51.660;5.824;2023-04-15T13:47:51;3.0;;;2.0;;
45382;SDS011;42455;51.660;5.824;2023-04-15T13:52:57;2.0;;;1.0;;
45382;SDS011;42455;51.660;5.824;2023-04-15T13:58:02;2.0;;;1.0;;
45382;SDS011;42455;51.660;5.824;2023-04-15T14:03:09;2.0;;;1.0;;
45382;SDS011;42455;51.660;5.824;2023-04-15T14:08:14;1.0;;;1.0;;
45382;SDS011;42455;51.660;5.824;2023-04-15T14:13:20;2.0;;;1.0;;
45382;SDS011;42455;51.660;5.824;2023-04-15T14:18:26;1.0;;;1.0;;
45382;SDS011;42455;51.660;5.824;2023-04-15T14:23:32;1.0;;;1.0;;
45382;SDS011;42455;51.660;5.824;2023-04-15T14:28:38;1.0;;;1.0;;
45382;SDS011;42455;51.660;5.824;2023-04-15T14:33:44;1.0;;;1.0;;
45382;SDS011;42455;51.660;5.824;2023-04-15T14:38:50;1.0;;;1.0;;
45382;SDS011;42455;51.660;5.824;2023-04-15T14:43:56;1.0;;;1.0;;
45382;SDS011;42455;51.660;5.824;2023-04-15T14:49:02;1.0;;;1.0;;
45382;SDS011;42455;51.660;5.824;2023-04-15T14:54:09;2.0;;;1.0;;
45382;SDS011;42455;51.660;5.824;2023-04-15T14:59:15;1.0;;;0.0;;
45382;SDS011;42455;51.660;5.824;2023-04-15T15:04:21;1.0;;;1.0;;
45382;SDS011;42455;51.660;5.824;2023-04-15T15:09:27;2.0;;;1.0;;
45382;SDS011;42455;51.660;5.824;2023-04-15T15:14:33;1.0;;;1.0;;
45382;SDS011;42455;51.660;5.824;2023-04-15T15:19:40;1.5;;;1.0;;
45382;SDS011;42455;51.660;5.824;2023-04-15T15:24:46;1.0;;;1.0;;
45382;SDS011;42455;51.660;5.824;2023-04-15T15:29:52;1.0;;;1.0;;
45382;SDS011;42455;51.660;5.824;2023-04-15T15:34:58;1.0;;;1.0;;
45382;SDS011;42455;51.660;5.824;2023-04-15T15:40:05;2.0;;;1.0;;
45382;SDS011;42455;51.660;5.824;2023-04-15T15:45:11;2.0;;;1.0;;
45382;SDS011;42455;51.660;5.824;2023-04-15T15:50:17;2.0;;;1.0;;
45382;SDS011;42455;51.660;5.824;2023-04-15T15:55:22;3.0;;;1.0;;
45382;SDS011;42455;51.660;5.824;2023-04-15T16:00:28;2.0;;;1.0;;
45382;SDS011;42455;51.660;5.824;2023-04-15T16:05:34;2.0;;;1.0;;
45382;SDS011;42455;51.660;5.824;2023-04-15T16:10:40;3.0;;;2.0;;
45382;SDS011;42455;51.660;5.824;2023-04-15T16:15:46;3.0;;;2.0;;
45382;SDS011;42455;51.660;5.824;2023-04-15T16:20:52;4.0;;;2.0;;
45382;SDS011;42455;51.660;5.824;2023-04-15T16:25:58;3.0;;;2.0;;
45382;SDS011;42455;51.660;5.824;2023-04-15T16:31:05;4.0;;;2.0;;
45382;SDS011;42455;51.660;5.824;2023-04-15T16:36:11;5.0;;;2.0;;
45382;SDS011;42455;51.660;5.824;2023-04-15T16:41:17;5.0;;;2.0;;
45382;SDS011;42455;51.660;5.824;2023-04-15T16:46:23;3.0;;;2.0;;
45382;SDS011;42455;51.660;5.824;2023-04-15T16:51:30;4.0;;;2.0;;
45382;SDS011;42455;51.660;5.824;2023-04-15T16:56:36;6.5;;;2.0;;
45382;SDS011;42455;51.660;5.824;2023-04-15T17:01:42;5.0;;;2.0;;
45382;SDS011;42455;51.660;5.824;2023-04-15T17:06:48;4.0;;;2.0;;
45382;SDS011;42455;51.660;5.824;2023-04-15T17:11:54;3.0;;;1.0;;
45382;SDS011;42455;51.660;5.824;2023-04-15T17:17:01;4.0;;;2.0;;
45382;SDS011;42455;51.660;5.824;2023-04-15T17:22:07;5.0;;;2.0;;
45382;SDS011;42455;51.660;5.824;2023-04-15T17:27:13;4.0;;;1.0;;
45382;SDS011;42455;51.660;5.824;2023-04-15T17:32:19;5.0;;;2.0;;
45382;SDS011;42455;51.660;5.824;2023-04-15T17:37:25;4.0;;;1.0;;
45382;SDS011;42455;51.660;5.824;2023-04-15T17:42:32;4.0;;;2.0;;
45382;SDS011;42455;51.660;5.824;2023-04-15T17:47:38;3.5;;;1.0;;
45382;SDS011;42455;51.660;5.824;2023-04-15T17:52:43;5.0;;;2.0;;
45382;SDS011;42455;51.660;5.824;2023-04-15T17:57:49;4.0;;;1.0;;
45382;SDS011;42455;51.660;5.824;2023-04-15T18:02:55;3.0;;;1.0;;
45382;SDS011;42455;51.660;5.824;2023-04-15T18:13:07;4.0;;;1.0;;
45382;SDS011;42455;51.660;5.824;2023-04-15T18:18:13;4.0;;;1.0;;
45382;SDS011;42455;51.660;5.824;2023-04-15T18:23:19;5.0;;;2.0;;
45382;SDS011;42455;51.660;5.824;2023-04-15T18:28:26;4.0;;;2.0;;
45382;SDS011;42455;51.660;5.824;2023-04-15T18:33:32;5.0;;;2.0;;
45382;SDS011;42455;51.660;5.824;2023-04-15T18:38:38;7.0;;;2.0;;
45382;SDS011;42455;51.660;5.824;2023-04-15T18:43:44;5.5;;;2.0;;
45382;SDS011;42455;51.660;5.824;2023-04-15T18:48:50;6.0;;;2.0;;
45382;SDS011;42455;51.660;5.824;2023-04-15T18:53:57;7.0;;;2.0;;
45382;SDS011;42455;51.660;5.824;2023-04-15T18:59:03;8.0;;;2.0;;
45382;SDS011;42455;51.660;5.824;2023-04-15T19:04:09;5.0;;;1.5;;
45382;SDS011;42455;51.660;5.824;2023-04-15T19:09:15;5.0;;;2.0;;
45382;SDS011;42455;51.660;5.824;2023-04-15T19:14:21;7.5;;;2.0;;
45382;SDS011;42455;51.660;5.824;2023-04-15T19:19:28;7.0;;;2.0;;
45382;SDS011;42455;51.660;5.824;2023-04-15T19:24:34;7.0;;;2.0;;
45382;SDS011;42455;51.660;5.824;2023-04-15T19:29:40;6.0;;;2.0;;
45382;SDS011;42455;51.660;5.824;2023-04-15T19:34:47;8.0;;;2.0;;
45382;SDS011;42455;51.660;5.824;2023-04-15T19:39:53;6.0;;;2.0;;
45382;SDS011;42455;51.660;5.824;2023-04-15T19:44:59;4.0;;;2.0;;
45382;SDS011;42455;51.660;5.824;2023-04-15T19:50:06;4.0;;;2.0;;
45382;SDS011;42455;51.660;5.824;2023-04-15T19:55:10;6.0;;;2.0;;
45382;SDS011;42455;51.660;5.824;2023-04-15T20:00:16;4.0;;;2.0;;
45382;SDS011;42455;51.660;5.824;2023-04-15T20:05:22;5.0;;;2.0;;
45382;SDS011;42455;51.660;5.824;2023-04-15T20:10:29;3.0;;;2.0;;
45382;SDS011;42455;51.660;5.824;2023-04-15T20:15:34;6.0;;;2.0;;
45382;SDS011;42455;51.660;5.824;2023-04-15T20:20:40;5.0;;;2.0;;
45382;SDS011;42455;51.660;5.824;2023-04-15T20:25:46;5.5;;;2.0;;
45382;SDS011;42455;51.660;5.824;2023-04-15T20:30:53;4.0;;;2.0;;
45382;SDS011;42455;51.660;5.824;2023-04-15T20:35:59;5.0;;;2.0;;
45382;SDS011;42455;51.660;5.824;2023-04-15T20:41:05;5.0;;;2.0;;
45382;SDS011;42455;51.660;5.824;2023-04-15T20:46:11;5.0;;;2.0;;
45382;SDS011;42455;51.660;5.824;2023-04-15T20:51:18;4.0;;;2.0;;
45382;SDS011;42455;51.660;5.824;2023-04-15T20:56:24;5.0;;;2.0;;
45382;SDS011;42455;51.660;5.824;2023-04-15T21:01:30;6.0;;;2.0;;
45382;SDS011;42455;51.660;5.824;2023-04-15T21:06:36;5.0;;;2.0;;
45382;SDS011;42455;51.660;5.824;2023-04-15T21:11:44;5.0;;;2.0;;
45382;SDS011;42455;51.660;5.824;2023-04-15T21:16:49;5.0;;;2.0;;
45382;SDS011;42455;51.660;5.824;2023-04-15T21:21:55;5.5;;;2.0;;
45382;SDS011;42455;51.660;5.824;2023-04-15T21:27:01;7.0;;;2.0;;
45382;SDS011;42455;51.660;5.824;2023-04-15T21:32:07;5.0;;;2.0;;
45382;SDS011;42455;51.660;5.824;2023-04-15T21:37:13;5.5;;;2.0;;
45382;SDS011;42455;51.660;5.824;2023-04-15T21:42:20;6.0;;;2.0;;
45382;SDS011;42455;51.660;5.824;2023-04-15T21:47:26;5.0;;;2.0;;
45382;SDS011;42455;51.660;5.824;2023-04-15T21:52:31;5.0;;;2.0;;
45382;SDS011;42455;51.660;5.824;2023-04-15T22:02:43;6.0;;;2.0;;
45382;SDS011;42455;51.660;5.824;2023-04-15T22:07:49;4.0;;;2.0;;
45382;SDS011;42455;51.660;5.824;2023-04-15T22:12:55;3.0;;;2.0;;
45382;SDS011;42455;51.660;5.824;2023-04-15T22:18:01;5.0;;;2.0;;
45382;SDS011;42455;51.660;5.824;2023-04-15T22:23:07;5.0;;;2.0;;
45382;SDS011;42455;51.660;5.824;2023-04-15T22:28:14;5.0;;;2.0;;
45382;SDS011;42455;51.660;5.824;2023-04-15T22:33:20;4.0;;;2.0;;
45382;SDS011;42455;51.660;5.824;2023-04-15T22:38:26;4.0;;;2.0;;
45382;SDS011;42455;51.660;5.824;2023-04-15T22:43:32;5.0;;;2.0;;
45382;SDS011;42455;51.660;5.824;2023-04-15T22:48:38;4.0;;;2.0;;
45382;SDS011;42455;51.660;5.824;2023-04-15T22:53:44;4.0;;;2.0;;
45382;SDS011;42455;51.660;5.824;2023-04-15T22:58:51;4.0;;;3.0;;
45382;SDS011;42455;51.660;5.824;2023-04-15T23:03:57;4.0;;;2.0;;
45382;SDS011;42455;51.660;5.824;2023-04-15T23:09:03;5.0;;;3.0;;
45382;SDS011;42455;51.660;5.824;2023-04-15T23:14:09;3.0;;;3.0;;
45382;SDS011;42455;51.660;5.824;2023-04-15T23:19:16;5.5;;;3.0;;
45382;SDS011;42455;51.660;5.824;2023-04-15T23:24:22;5.0;;;3.0;;
45382;SDS011;42455;51.660;5.824;2023-04-15T23:29:28;5.0;;;3.0;;
45382;SDS011;42455;51.660;5.824;2023-04-15T23:34:34;6.0;;;4.0;;
45382;SDS011;42455;51.660;5.824;2023-04-15T23:39:40;6.0;;;4.0;;
45382;SDS011;42455;51.660;5.824;2023-04-15T23:44:47;4.0;;;3.0;;
45382;SDS011;42455;51.660;5.824;2023-04-15T23:49:53;6.0;;;3.0;;
45382;SDS011;42455;51.660;5.824;2023-04-15T23:54:58;6.0;;;3.0;;
